METAR Data
IDs: Format: Raw Decoded Include TAF

Data at: 2012 UTC 26 Sep 2021

EHFS 261955Z AUTO 16011KT 9999 NSC 18/16 Q1014